Time;durP1;ratioP1;P1;durP2;ratioP2;P2;SDS_P1;SDS_P2;PMS_P1;PMS_P2;Temp;Humidity;BMP_temperature;BMP_pressure;BME280_temperature;BME280_humidity;BME280_pressure;Samples;Min_cycle;Max_cycle;Signal;HPM_P1;HPM_P2
2024/01/27 00:01:36;;;;;;;12.75;8.55;;;8.10;70.30;;;;;;6092797;23;20011;-76
2024/01/27 00:04:02;;;;;;;14.15;8.57;;;8.10;70.40;;;;;;6094561;23;20041;-76
2024/01/27 00:06:28;;;;;;;12.77;8.38;;;8.10;70.30;;;;;;6094451;23;20018;-75
2024/01/27 00:08:54;;;;;;;13.05;9.63;;;8.10;70.30;;;;;;6094914;23;20097;-76
2024/01/27 00:11:20;;;;;;;13.60;8.95;;;8.10;70.30;;;;;;6094270;23;20569;-76
2024/01/27 00:13:46;;;;;;;14.05;9.00;;;8.10;70.30;;;;;;6095094;23;20438;-76
2024/01/27 00:16:12;;;;;;;11.55;8.30;;;8.10;70.00;;;;;;6093594;23;20407;-76
2024/01/27 00:18:38;;;;;;;12.30;8.43;;;8.10;70.10;;;;;;6094973;23;20162;-76
2024/01/27 00:21:07;;;;;;;12.63;8.77;;;8.10;70.00;;;;;;6094185;23;20097;-76
2024/01/27 00:23:37;;;;;;;13.55;9.20;;;8.10;70.00;;;;;;6068752;23;20022;-76
2024/01/27 00:26:03;;;;;;;13.35;8.93;;;8.10;69.90;;;;;;6094199;23;20022;-75
2024/01/27 00:28:29;;;;;;;13.95;9.63;;;8.00;69.80;;;;;;6094970;23;20465;-76
2024/01/27 00:30:55;;;;;;;12.63;8.52;;;8.00;70.30;;;;;;6094078;23;20622;-76
2024/01/27 00:33:22;;;;;;;12.57;9.10;;;8.10;69.70;;;;;;6094366;23;20550;-76
2024/01/27 00:35:48;;;;;;;11.82;8.65;;;8.10;69.60;;;;;;6094094;23;20347;-76
2024/01/27 00:38:14;;;;;;;13.45;8.73;;;8.10;69.70;;;;;;6044813;23;20018;-76
2024/01/27 00:40:41;;;;;;;10.93;8.35;;;8.10;69.60;;;;;;6069175;23;20069;-76
2024/01/27 00:43:07;;;;;;;12.95;8.85;;;8.00;69.60;;;;;;6093320;23;20026;-76
2024/01/27 00:45:33;;;;;;;11.75;8.85;;;8.00;69.60;;;;;;6093805;23;20023;-76
2024/01/27 00:47:59;;;;;;;11.20;8.23;;;8.00;69.70;;;;;;6093683;23;20064;-76
2024/01/27 00:50:25;;;;;;;11.85;8.27;;;8.10;69.60;;;;;;6094147;23;20018;-76
2024/01/27 00:52:51;;;;;;;11.68;8.20;;;8.00;69.60;;;;;;6094611;23;20014;-77
2024/01/27 00:55:17;;;;;;;14.95;10.20;;;8.00;69.60;;;;;;6092115;23;20030;-77
2024/01/27 00:57:44;;;;;;;13.27;8.20;;;8.00;69.60;;;;;;6068350;23;20070;-77
2024/01/27 01:00:10;;;;;;;12.32;8.80;;;8.00;69.60;;;;;;6068418;23;20485;-77
2024/01/27 01:02:37;;;;;;;11.35;8.02;;;8.00;69.60;;;;;;6093714;23;20042;-76
2024/01/27 01:05:04;;;;;;;11.60;8.13;;;8.00;69.60;;;;;;6093426;23;20021;-76
2024/01/27 01:07:31;;;;;;;11.75;8.80;;;8.00;69.40;;;;;;6069299;23;20454;-77
2024/01/27 01:09:57;;;;;;;13.35;8.63;;;8.00;69.30;;;;;;6094188;23;20485;-77
2024/01/27 01:12:25;;;;;;;10.27;7.95;;;8.00;69.40;;;;;;6093859;23;20018;-77
2024/01/27 01:14:51;;;;;;;12.18;8.43;;;8.00;69.60;;;;;;6093549;23;20618;-77
2024/01/27 01:17:18;;;;;;;12.13;8.30;;;8.00;69.50;;;;;;6093619;23;20672;-76
2024/01/27 01:19:44;;;;;;;12.45;8.18;;;8.00;69.60;;;;;;6044927;23;20113;-76
2024/01/27 01:22:10;;;;;;;12.68;8.77;;;8.00;69.70;;;;;;6093630;23;20049;-76
2024/01/27 01:24:36;;;;;;;11.65;8.07;;;8.00;69.70;;;;;;6093943;23;20022;-77
2024/01/27 01:27:02;;;;;;;10.98;7.63;;;8.00;69.70;;;;;;6068230;23;20030;-77
2024/01/27 01:29:29;;;;;;;11.32;8.40;;;8.00;69.80;;;;;;6093731;23;20030;-76
2024/01/27 01:31:56;;;;;;;12.18;7.57;;;8.00;69.80;;;;;;6092607;23;20045;-77
2024/01/27 01:34:22;;;;;;;13.48;8.00;;;8.00;69.70;;;;;;6068583;23;20022;-77
2024/01/27 01:36:48;;;;;;;10.05;7.65;;;8.00;69.60;;;;;;6093518;23;20093;-77
2024/01/27 01:39:14;;;;;;;10.55;7.68;;;8.00;69.40;;;;;;6092084;23;20018;-77
2024/01/27 01:41:41;;;;;;;10.23;7.43;;;8.00;69.50;;;;;;6093339;23;20064;-76
2024/01/27 01:44:07;;;;;;;10.55;7.75;;;8.00;69.40;;;;;;6093354;23;20014;-77
2024/01/27 01:46:34;;;;;;;11.18;7.75;;;8.00;69.20;;;;;;6093225;23;20003;-78
2024/01/27 01:49:00;;;;;;;10.32;7.20;;;8.00;69.30;;;;;;6094885;23;20081;-77
2024/01/27 01:51:27;;;;;;;9.52;6.93;;;7.90;69.40;;;;;;6068953;23;20022;-77
2024/01/27 01:53:58;;;;;;;9.98;7.00;;;8.00;69.30;;;;;;6069498;23;20018;-76
2024/01/27 01:56:25;;;;;;;10.18;7.88;;;8.00;69.30;;;;;;6093150;23;20331;-76
2024/01/27 01:58:51;;;;;;;8.80;6.85;;;7.90;69.10;;;;;;6068377;23;20577;-76
2024/01/27 02:01:19;;;;;;;10.63;7.85;;;7.90;69.20;;;;;;6043959;23;20023;-77
2024/01/27 02:03:56;;;;;;;10.32;7.50;;;7.90;69.00;;;;;;6068687;23;20049;-76
2024/01/27 02:06:22;;;;;;;11.32;7.63;;;7.90;69.30;;;;;;6091535;23;20034;-77
2024/01/27 02:08:49;;;;;;;11.13;7.68;;;7.90;69.00;;;;;;6091717;23;20019;-77
2024/01/27 02:11:16;;;;;;;10.55;7.45;;;7.90;69.10;;;;;;6093120;23;20014;-77
2024/01/27 02:13:42;;;;;;;9.85;7.28;;;7.90;69.00;;;;;;6093910;23;20464;-77
2024/01/27 02:16:08;;;;;;;10.30;7.43;;;7.90;69.10;;;;;;6091433;23;20082;-77
2024/01/27 02:18:34;;;;;;;10.15;7.20;;;7.90;69.10;;;;;;6092815;23;20026;-77
2024/01/27 02:21:00;;;;;;;11.00;7.47;;;7.90;68.90;;;;;;6067850;23;20053;-76
2024/01/27 02:23:26;;;;;;;11.65;7.75;;;7.90;68.90;;;;;;6093054;23;20022;-76
2024/01/27 02:25:52;;;;;;;11.35;7.97;;;7.90;68.70;;;;;;6092859;23;20045;-76
2024/01/27 02:28:18;;;;;;;11.43;7.45;;;7.90;68.70;;;;;;6092869;23;20027;-76
2024/01/27 02:30:44;;;;;;;9.18;6.53;;;7.90;68.60;;;;;;6093169;23;20022;-77
2024/01/27 02:33:10;;;;;;;11.07;7.82;;;7.90;68.50;;;;;;6067845;23;20095;-76
2024/01/27 02:35:36;;;;;;;10.68;7.75;;;7.90;68.40;;;;;;6093038;23;20014;-76
2024/01/27 02:38:02;;;;;;;10.40;7.50;;;7.90;68.60;;;;;;6093036;23;20018;-76
2024/01/27 02:40:28;;;;;;;9.48;7.15;;;7.90;68.70;;;;;;6068131;23;20013;-76
2024/01/27 02:42:54;;;;;;;12.27;7.30;;;7.90;68.80;;;;;;6093011;23;20022;-76
2024/01/27 02:45:20;;;;;;;8.77;6.88;;;7.90;68.80;;;;;;6092895;23;20505;-76
2024/01/27 02:47:46;;;;;;;9.23;6.97;;;7.90;68.80;;;;;;6092774;23;20022;-77
2024/01/27 02:50:12;;;;;;;11.48;7.35;;;7.90;68.90;;;;;;6091632;23;20697;-76
2024/01/27 02:52:38;;;;;;;9.32;7.03;;;7.90;68.80;;;;;;6093545;23;20010;-76
2024/01/27 02:55:06;;;;;;;10.15;7.78;;;7.90;68.80;;;;;;6091349;23;20023;-75
2024/01/27 02:57:32;;;;;;;8.43;6.32;;;7.90;68.60;;;;;;6092759;23;20097;-75
2024/01/27 02:59:58;;;;;;;10.65;7.25;;;7.90;68.70;;;;;;6093101;23;20018;-74
2024/01/27 03:02:24;;;;;;;9.70;6.55;;;7.90;68.60;;;;;;6092958;23;20011;-75
2024/01/27 03:04:50;;;;;;;9.70;7.10;;;7.90;68.60;;;;;;6091884;23;20025;-75
2024/01/27 03:07:16;;;;;;;10.25;6.55;;;7.90;68.40;;;;;;6092580;23;20022;-74
2024/01/27 03:09:42;;;;;;;10.32;6.82;;;7.90;68.40;;;;;;6092882;23;20029;-75
2024/01/27 03:12:08;;;;;;;8.88;7.00;;;7.90;68.40;;;;;;6093025;23;20019;-74
2024/01/27 03:14:34;;;;;;;8.85;6.28;;;7.90;68.40;;;;;;6092696;23;20014;-74
2024/01/27 03:17:00;;;;;;;8.02;6.40;;;7.90;68.20;;;;;;6092905;23;20010;-74
2024/01/27 03:19:26;;;;;;;9.52;6.97;;;7.90;68.20;;;;;;6093478;23;20017;-75
2024/01/27 03:21:52;;;;;;;8.52;6.05;;;7.90;68.10;;;;;;6093076;23;20026;-74
2024/01/27 03:24:18;;;;;;;10.95;6.68;;;7.80;67.90;;;;;;6091202;23;20037;-74
2024/01/27 03:26:44;;;;;;;8.00;6.47;;;7.90;67.90;;;;;;6092937;23;20026;-75
2024/01/27 03:29:10;;;;;;;8.82;6.40;;;7.90;67.80;;;;;;6094947;23;20045;-75
2024/01/27 03:31:36;;;;;;;8.07;6.78;;;7.80;67.90;;;;;;6096815;23;20119;-75
2024/01/27 03:34:03;;;;;;;9.43;6.47;;;7.80;68.00;;;;;;6096073;23;20053;-75
2024/01/27 03:36:29;;;;;;;9.85;6.60;;;7.80;68.00;;;;;;6096914;23;20022;-75
2024/01/27 03:38:57;;;;;;;10.25;6.72;;;7.80;68.00;;;;;;6071043;23;20042;-76
2024/01/27 03:41:23;;;;;;;8.38;6.32;;;7.80;68.00;;;;;;6046299;23;20061;-75
2024/01/27 03:43:50;;;;;;;8.18;5.90;;;7.80;68.70;;;;;;6096579;23;20056;-75
2024/01/27 03:46:16;;;;;;;9.07;6.53;;;7.80;67.90;;;;;;6095991;23;20104;-76
2024/01/27 03:48:42;;;;;;;7.68;6.18;;;7.80;68.00;;;;;;6095793;23;20030;-75
2024/01/27 03:51:08;;;;;;;8.85;6.18;;;7.80;67.90;;;;;;6096195;23;20506;-75
2024/01/27 03:53:34;;;;;;;8.00;5.95;;;7.80;68.10;;;;;;6094417;23;20066;-74
2024/01/27 03:56:04;;;;;;;8.38;6.15;;;7.80;68.10;;;;;;6095913;23;20061;-75
2024/01/27 03:58:30;;;;;;;9.13;6.15;;;7.80;67.80;;;;;;6096668;23;20017;-75
2024/01/27 04:00:57;;;;;;;8.65;6.30;;;7.80;68.00;;;;;;6095945;23;20042;-75
2024/01/27 04:03:23;;;;;;;9.85;6.80;;;7.80;67.90;;;;;;6096241;23;20077;-74
2024/01/27 04:05:49;;;;;;;9.05;6.47;;;7.80;67.70;;;;;;6070204;23;20014;-75
2024/01/27 04:08:15;;;;;;;9.15;7.00;;;7.80;67.80;;;;;;6095437;23;20012;-73
2024/01/27 04:10:42;;;;;;;8.10;5.68;;;7.70;67.80;;;;;;6047288;23;20093;-75
2024/01/27 04:13:08;;;;;;;7.97;6.03;;;7.70;67.80;;;;;;6094671;23;20023;-75
2024/01/27 04:15:38;;;;;;;8.50;5.95;;;7.70;67.80;;;;;;6096810;23;20409;-76
2024/01/27 04:18:08;;;;;;;7.43;5.97;;;7.70;68.10;;;;;;6094147;23;20018;-74
2024/01/27 04:20:35;;;;;;;9.25;6.13;;;7.70;68.30;;;;;;6096043;23;20062;-74
2024/01/27 04:23:02;;;;;;;7.32;5.85;;;7.80;68.30;;;;;;6095870;23;20010;-74
2024/01/27 04:25:28;;;;;;;7.03;5.53;;;7.70;68.20;;;;;;6096513;23;20010;-76
2024/01/27 04:27:54;;;;;;;7.82;6.28;;;7.70;68.20;;;;;;6094610;23;20439;-75
2024/01/27 04:30:20;;;;;;;8.13;6.28;;;7.70;67.90;;;;;;6093837;23;20028;-75
2024/01/27 04:32:49;;;;;;;7.82;5.82;;;7.80;68.00;;;;;;6094591;23;20021;-76
2024/01/27 04:35:15;;;;;;;8.45;5.78;;;7.70;67.80;;;;;;6095634;23;20011;-76
2024/01/27 04:37:41;;;;;;;7.57;5.63;;;7.70;67.90;;;;;;6096449;23;20014;-75
2024/01/27 04:40:08;;;;;;;7.43;5.63;;;7.70;67.80;;;;;;6093360;23;20022;-77
2024/01/27 04:42:43;;;;;;;8.77;5.85;;;7.70;67.60;;;;;;6068970;23;20022;-77
2024/01/27 04:45:09;;;;;;;8.13;5.85;;;7.70;67.80;;;;;;6094051;23;20507;-77
2024/01/27 04:47:35;;;;;;;8.68;5.55;;;7.70;67.90;;;;;;6093962;23;20026;-77
2024/01/27 04:50:01;;;;;;;7.82;5.78;;;7.70;67.70;;;;;;6068408;23;20122;-77
2024/01/27 04:52:29;;;;;;;8.73;6.28;;;7.70;67.70;;;;;;6093633;23;20092;-77
2024/01/27 04:54:55;;;;;;;7.78;5.82;;;7.70;67.70;;;;;;6094137;23;20027;-77
2024/01/27 04:57:21;;;;;;;7.90;6.05;;;7.70;67.80;;;;;;6094215;23;20089;-77
2024/01/27 04:59:47;;;;;;;7.70;5.80;;;7.70;67.90;;;;;;6093980;23;20414;-77
2024/01/27 05:02:13;;;;;;;7.72;5.30;;;7.70;67.80;;;;;;6092258;23;20022;-77
2024/01/27 05:04:39;;;;;;;11.40;6.07;;;7.70;67.80;;;;;;6094243;23;20026;-77
2024/01/27 05:07:05;;;;;;;7.85;5.47;;;7.70;67.70;;;;;;6093860;23;20566;-77
2024/01/27 05:09:31;;;;;;;7.38;5.55;;;7.70;67.80;;;;;;6068134;23;20018;-76
2024/01/27 05:11:59;;;;;;;9.65;6.63;;;7.70;67.90;;;;;;6093791;23;20024;-76
2024/01/27 05:14:25;;;;;;;7.88;6.07;;;7.70;67.80;;;;;;6093586;23;20020;-77
2024/01/27 05:16:51;;;;;;;8.88;6.07;;;7.70;67.70;;;;;;6094460;23;20097;-76
2024/01/27 05:19:17;;;;;;;8.13;5.82;;;7.70;67.60;;;;;;6093776;23;20529;-76
2024/01/27 05:21:44;;;;;;;8.20;6.03;;;7.60;67.50;;;;;;6068414;23;20025;-76
2024/01/27 05:24:10;;;;;;;8.57;6.20;;;7.60;67.40;;;;;;6068208;23;20482;-77
2024/01/27 05:26:36;;;;;;;7.60;5.60;;;7.70;67.50;;;;;;6067774;23;20049;-78
2024/01/27 05:29:02;;;;;;;8.82;6.45;;;7.60;67.50;;;;;;6092492;23;20018;-76
2024/01/27 05:31:28;;;;;;;8.60;6.00;;;7.70;67.70;;;;;;6068550;23;20018;-76
2024/01/27 05:33:55;;;;;;;8.55;5.80;;;7.70;67.70;;;;;;6068097;23;20026;-77
2024/01/27 05:36:21;;;;;;;7.78;5.35;;;7.70;67.70;;;;;;6067831;23;20026;-77
2024/01/27 05:38:47;;;;;;;8.05;6.15;;;7.70;67.80;;;;;;6093784;23;20018;-77
2024/01/27 05:41:13;;;;;;;7.88;5.88;;;7.70;68.00;;;;;;6092868;23;20014;-76
2024/01/27 05:43:39;;;;;;;8.88;6.15;;;7.60;68.00;;;;;;6092360;23;20014;-75
2024/01/27 05:46:05;;;;;;;9.95;6.35;;;7.60;68.00;;;;;;6040668;23;20460;-76
2024/01/27 05:48:31;;;;;;;9.20;6.57;;;7.70;67.90;;;;;;6092067;23;20026;-77
2024/01/27 05:50:58;;;;;;;7.28;5.65;;;7.70;67.70;;;;;;6067772;23;20097;-78
2024/01/27 05:53:25;;;;;;;8.77;5.63;;;7.70;67.60;;;;;;6068316;23;20021;-76
2024/01/27 05:55:52;;;;;;;6.88;5.28;;;7.70;67.80;;;;;;6094084;23;20066;-78
2024/01/27 05:58:21;;;;;;;10.95;6.38;;;7.70;67.70;;;;;;6068055;23;20074;-77
2024/01/27 06:00:47;;;;;;;9.70;6.00;;;7.60;67.60;;;;;;6067740;23;20462;-77
2024/01/27 06:03:14;;;;;;;9.50;5.88;;;7.70;67.60;;;;;;6066686;23;20034;-78
2024/01/27 06:05:42;;;;;;;8.95;6.35;;;7.70;67.80;;;;;;6092003;23;20335;-78
2024/01/27 06:08:08;;;;;;;11.25;6.47;;;7.70;67.50;;;;;;6093188;23;20021;-76
2024/01/27 06:10:36;;;;;;;8.93;6.10;;;7.70;67.60;;;;;;6091468;23;20033;-78
2024/01/27 06:13:03;;;;;;;7.32;5.60;;;7.70;67.50;;;;;;6092314;23;20026;-77
2024/01/27 06:15:29;;;;;;;8.48;5.63;;;7.60;67.50;;;;;;6066711;23;20058;-78
2024/01/27 06:17:55;;;;;;;7.70;5.80;;;7.60;67.50;;;;;;6067566;23;20022;-77
2024/01/27 06:20:21;;;;;;;8.20;5.97;;;7.70;67.40;;;;;;6092880;23;20015;-76
2024/01/27 06:22:47;;;;;;;8.40;5.65;;;7.60;67.40;;;;;;6093658;23;20052;-76
2024/01/27 06:25:14;;;;;;;8.55;5.18;;;7.60;67.40;;;;;;6067015;23;20030;-76
2024/01/27 06:27:41;;;;;;;7.53;5.80;;;7.70;67.40;;;;;;6092985;23;20054;-76
2024/01/27 06:30:09;;;;;;;8.05;6.20;;;7.70;67.30;;;;;;6093061;23;20021;-80
2024/01/27 06:32:36;;;;;;;7.75;5.75;;;7.70;67.40;;;;;;6067906;23;20413;-81
2024/01/27 06:35:02;;;;;;;10.02;6.28;;;7.70;67.30;;;;;;6093167;23;20015;-80
2024/01/27 06:37:29;;;;;;;9.57;6.20;;;7.70;67.40;;;;;;6067910;23;20093;-79
2024/01/27 06:39:57;;;;;;;10.90;6.18;;;7.70;67.40;;;;;;6091668;23;20023;-77
2024/01/27 06:42:23;;;;;;;12.10;6.35;;;7.70;67.50;;;;;;6089004;23;20026;-79
2024/01/27 06:44:49;;;;;;;8.70;6.38;;;7.70;67.40;;;;;;6088920;23;20022;-79
2024/01/27 06:47:16;;;;;;;7.97;5.65;;;7.70;67.50;;;;;;6089929;23;20101;-79
2024/01/27 06:49:42;;;;;;;8.75;6.05;;;7.70;67.70;;;;;;6089347;23;20105;-79
2024/01/27 06:52:09;;;;;;;9.70;6.05;;;7.70;67.70;;;;;;6064787;23;20034;-79
2024/01/27 06:54:36;;;;;;;9.07;6.20;;;7.70;67.60;;;;;;6090298;23;20018;-79
2024/01/27 06:57:02;;;;;;;8.10;6.10;;;7.80;67.80;;;;;;6064913;23;20446;-79
2024/01/27 06:59:29;;;;;;;12.23;6.80;;;7.70;67.80;;;;;;6090643;23;20026;-79
2024/01/27 07:01:55;;;;;;;10.00;7.05;;;7.70;67.90;;;;;;6088931;23;20103;-79
2024/01/27 07:04:22;;;;;;;8.23;6.10;;;7.80;68.10;;;;;;6089685;23;20132;-80
2024/01/27 07:06:48;;;;;;;13.07;6.88;;;7.80;68.30;;;;;;6088958;23;20018;-77
2024/01/27 07:09:14;;;;;;;9.77;6.30;;;7.80;68.50;;;;;;6090274;23;20019;-79
2024/01/27 07:11:40;;;;;;;9.65;6.47;;;7.80;68.40;;;;;;6065795;23;20021;-79
2024/01/27 07:14:06;;;;;;;9.38;6.43;;;7.80;68.20;;;;;;6088737;23;20014;-79
2024/01/27 07:16:33;;;;;;;12.07;6.93;;;7.80;68.20;;;;;;6090252;23;20657;-77
2024/01/27 07:19:00;;;;;;;9.85;6.82;;;7.80;68.20;;;;;;6090334;23;20022;-77
2024/01/27 07:21:28;;;;;;;15.77;7.03;;;7.80;68.20;;;;;;6090985;23;20403;-77
2024/01/27 07:23:54;;;;;;;10.55;6.30;;;7.90;68.30;;;;;;6064390;23;20536;-80
2024/01/27 07:26:21;;;;;;;10.30;7.30;;;7.90;68.10;;;;;;6088794;23;20474;-78
2024/01/27 07:28:47;;;;;;;11.75;6.93;;;7.90;68.50;;;;;;6090623;23;20089;-80
2024/01/27 07:31:14;;;;;;;14.13;6.93;;;7.90;68.80;;;;;;6089607;23;20577;-77
2024/01/27 07:33:40;;;;;;;9.23;6.60;;;7.90;68.60;;;;;;6090077;23;20026;-77
2024/01/27 07:36:06;;;;;;;11.43;7.22;;;7.90;68.70;;;;;;6087704;23;20101;-77
2024/01/27 07:38:32;;;;;;;14.88;6.95;;;8.00;68.90;;;;;;6088408;23;20021;-78
2024/01/27 07:40:59;;;;;;;9.35;7.00;;;8.00;68.80;;;;;;6090549;23;20016;-79
2024/01/27 07:43:27;;;;;;;12.13;6.60;;;8.00;68.80;;;;;;6093701;23;20022;-78
2024/01/27 07:45:53;;;;;;;9.65;6.72;;;8.00;68.90;;;;;;6090214;23;20050;-78
2024/01/27 07:48:19;;;;;;;10.45;7.00;;;8.00;69.00;;;;;;6092119;23;20600;-79
2024/01/27 07:50:48;;;;;;;14.88;7.72;;;8.00;69.00;;;;;;6091694;23;20019;-79
2024/01/27 07:53:15;;;;;;;11.32;7.32;;;8.10;69.30;;;;;;6091235;23;20489;-81
2024/01/27 07:55:41;;;;;;;10.10;7.00;;;8.10;69.40;;;;;;6090163;23;20458;-78
2024/01/27 07:58:07;;;;;;;11.15;6.43;;;8.10;69.50;;;;;;6091454;23;20027;-79
2024/01/27 08:00:33;;;;;;;10.35;7.15;;;8.10;69.60;;;;;;6091566;23;20030;-78
2024/01/27 08:02:59;;;;;;;10.40;7.45;;;8.10;69.60;;;;;;6093846;23;20022;-79
2024/01/27 08:05:25;;;;;;;10.80;6.78;;;8.10;69.60;;;;;;6094216;23;20038;-79
2024/01/27 08:07:51;;;;;;;12.52;6.85;;;8.10;69.70;;;;;;6092854;23;20038;-78
2024/01/27 08:10:17;;;;;;;10.77;7.25;;;8.10;69.60;;;;;;6092648;23;20454;-77
2024/01/27 08:12:43;;;;;;;10.55;6.90;;;8.20;69.80;;;;;;6091233;23;20054;-78
2024/01/27 08:15:10;;;;;;;13.15;8.02;;;8.10;69.90;;;;;;6092337;23;20014;-78
2024/01/27 08:17:36;;;;;;;12.88;7.65;;;8.10;69.80;;;;;;6068628;23;20016;-77
2024/01/27 08:20:02;;;;;;;15.27;7.95;;;8.20;70.00;;;;;;6094480;23;20010;-78
2024/01/27 08:22:28;;;;;;;13.93;8.20;;;8.20;70.10;;;;;;6091726;23;20473;-75
2024/01/27 08:24:55;;;;;;;16.10;7.80;;;8.20;70.00;;;;;;6090915;23;20022;-78
2024/01/27 08:27:21;;;;;;;12.20;7.97;;;8.20;69.80;;;;;;6091960;23;20379;-80
2024/01/27 08:29:47;;;;;;;13.38;7.82;;;8.20;70.00;;;;;;6068721;23;20088;-80
2024/01/27 08:32:13;;;;;;;13.15;7.88;;;8.20;70.00;;;;;;6096668;23;20014;-81
2024/01/27 08:34:39;;;;;;;11.07;7.20;;;8.30;70.20;;;;;;6095321;23;20016;-80
2024/01/27 08:37:16;;;;;;;13.40;7.85;;;8.30;70.30;;;;;;6095029;23;20046;-79
2024/01/27 08:39:42;;;;;;;16.75;9.20;;;8.30;70.20;;;;;;6093839;23;20458;-78
2024/01/27 08:42:08;;;;;;;12.20;8.18;;;8.30;70.80;;;;;;6095440;23;20024;-79
2024/01/27 08:44:34;;;;;;;15.25;8.32;;;8.30;70.20;;;;;;6094583;23;20030;-77
2024/01/27 08:47:00;;;;;;;14.25;8.48;;;8.30;70.10;;;;;;6093898;23;20018;-79
2024/01/27 08:49:26;;;;;;;9.70;7.13;;;8.40;70.00;;;;;;6095568;23;20010;-76
2024/01/27 08:51:52;;;;;;;8.68;5.70;;;8.40;73.00;;;;;;6093517;23;20045;-79
2024/01/27 08:54:19;;;;;;;16.42;6.93;;;8.50;74.00;;;;;;6093370;23;20022;-77
2024/01/27 08:56:45;;;;;;;12.68;7.32;;;8.60;73.10;;;;;;6067749;23;20015;-76
2024/01/27 08:59:11;;;;;;;11.82;7.32;;;8.60;72.20;;;;;;6090951;23;20014;-75
2024/01/27 09:01:37;;;;;;;12.00;8.02;;;8.60;71.70;;;;;;6091517;23;20430;-76
2024/01/27 09:04:03;;;;;;;11.73;8.07;;;8.60;70.90;;;;;;6091622;23;20031;-76
2024/01/27 09:06:29;;;;;;;11.63;7.72;;;8.60;70.60;;;;;;6044258;23;20046;-76
2024/01/27 09:08:55;;;;;;;12.55;8.18;;;8.60;70.30;;;;;;6091850;23;20018;-76
2024/01/27 09:11:27;;;;;;;10.82;7.25;;;8.60;70.00;;;;;;6093176;23;20049;-75
2024/01/27 09:13:53;;;;;;;12.52;7.55;;;8.70;69.90;;;;;;6094415;23;20657;-77
2024/01/27 09:16:19;;;;;;;13.38;8.00;;;8.70;69.60;;;;;;6093504;23;20061;-79
2024/01/27 09:18:45;;;;;;;10.98;7.93;;;8.70;69.60;;;;;;6093679;23;20068;-77
2024/01/27 09:21:11;;;;;;;12.40;7.72;;;8.70;69.40;;;;;;6092450;23;20018;-76
2024/01/27 09:23:38;;;;;;;11.15;7.63;;;8.70;69.30;;;;;;6053931;23;20109;-78
2024/01/27 09:26:12;;;;;;;11.85;7.80;;;8.70;69.30;;;;;;6092212;23;20014;-78
2024/01/27 09:31:41;;;;;;;10.88;7.63;;;8.70;69.00;;;;;;6094892;23;20415;-83
2024/01/27 09:34:07;;;;;;;12.98;7.90;;;8.80;68.90;;;;;;6098774;23;20050;-77
2024/01/27 09:36:47;;;;;;;12.05;8.27;;;8.80;69.00;;;;;;6067401;23;20203;-80
2024/01/27 09:39:45;;;;;;;11.95;7.93;;;8.80;68.90;;;;;;6053759;23;20077;-80
2024/01/27 09:43:09;;;;;;;;;;;8.80;68.80;;;;;;6035709;23;20042;-79
2024/01/27 09:45:44;;;;;;;11.23;7.45;;;8.80;68.50;;;;;;5984302;23;20000;-79
2024/01/27 09:48:13;;;;;;;9.50;6.82;;;8.80;68.50;;;;;;6005973;23;20731;-78
2024/01/27 09:50:53;;;;;;;10.35;7.53;;;8.80;68.50;;;;;;5963905;23;20467;-80
2024/01/27 09:53:28;;;;;;;15.88;8.05;;;8.80;68.10;;;;;;5972949;23;20094;-79
2024/01/27 09:56:29;;;;;;;11.10;8.20;;;8.80;68.10;;;;;;6014527;23;20052;-80
2024/01/27 09:59:18;;;;;;;9.35;6.75;;;8.80;68.00;;;;;;6032126;23;20039;-79
2024/01/27 10:02:08;;;;;;;13.65;8.38;;;8.80;68.20;;;;;;6010093;23;20015;-85
2024/01/27 10:05:08;;;;;;;9.70;7.35;;;8.80;68.10;;;;;;5965002;23;20102;-80
2024/01/27 10:07:41;;;;;;;12.38;7.45;;;8.80;68.20;;;;;;6033618;23;20026;-86
2024/01/27 10:10:07;;;;;;;12.18;8.10;;;8.80;68.20;;;;;;6019151;23;20400;-78
2024/01/27 10:13:03;;;;;;;11.35;7.85;;;8.80;68.20;;;;;;6007908;23;20041;-81
2024/01/27 10:15:37;;;;;;;10.85;7.95;;;8.90;68.20;;;;;;6015388;23;20078;-80
2024/01/27 10:18:15;;;;;;;13.15;7.38;;;8.90;68.20;;;;;;6015384;23;20015;-81
2024/01/27 10:20:51;;;;;;;14.20;7.72;;;8.90;68.20;;;;;;6031427;23;20090;-81
2024/01/27 10:23:17;;;;;;;10.55;7.22;;;8.90;68.10;;;;;;6036928;23;21482;-80
2024/01/27 10:25:46;;;;;;;10.05;6.93;;;8.90;68.10;;;;;;6090736;23;20014;-80
2024/01/27 10:28:30;;;;;;;9.85;7.35;;;8.90;68.00;;;;;;6065797;23;20018;-80
2024/01/27 10:31:16;;;;;;;10.20;7.20;;;8.90;67.90;;;;;;6091286;23;20026;-81
2024/01/27 10:33:53;;;;;;;13.20;7.82;;;8.90;67.80;;;;;;6019001;23;20042;-82
2024/01/27 10:36:28;;;;;;;10.88;7.30;;;8.90;67.70;;;;;;6049607;23;20477;-81
2024/01/27 10:38:57;;;;;;;12.00;8.20;;;8.90;67.70;;;;;;6090298;23;20021;-79
2024/01/27 10:41:31;;;;;;;12.45;8.68;;;8.90;67.60;;;;;;6078238;23;20077;-79
2024/01/27 10:44:22;;;;;;;12.00;8.25;;;8.80;67.40;;;;;;6043219;23;20597;-80
2024/01/27 10:46:49;;;;;;;13.38;8.07;;;8.90;67.40;;;;;;6091194;23;20105;-80
2024/01/27 10:49:20;;;;;;;12.88;8.05;;;8.90;67.30;;;;;;6041978;23;20050;-79
2024/01/27 10:51:55;;;;;;;11.93;7.72;;;8.90;67.10;;;;;;6091077;23;20478;-79
2024/01/27 10:54:26;;;;;;;11.95;7.97;;;8.90;67.30;;;;;;6066103;23;20113;-78
2024/01/27 10:56:58;;;;;;;12.02;8.10;;;8.90;67.20;;;;;;6090212;23;20022;-79
2024/01/27 10:59:26;;;;;;;11.32;8.23;;;8.90;67.10;;;;;;6066102;23;20042;-80
2024/01/27 11:01:54;;;;;;;11.88;8.02;;;8.90;67.00;;;;;;6093028;23;20022;-80
2024/01/27 11:04:21;;;;;;;12.75;8.73;;;8.90;66.90;;;;;;6092457;23;20354;-79
2024/01/27 11:06:50;;;;;;;13.63;8.77;;;8.90;66.90;;;;;;6092780;23;20023;-80
2024/01/27 11:09:18;;;;;;;11.10;8.32;;;8.90;66.90;;;;;;6091874;23;20018;-81
2024/01/27 11:11:46;;;;;;;13.50;8.50;;;8.90;66.80;;;;;;6091620;23;20584;-80
2024/01/27 11:14:12;;;;;;;10.52;8.07;;;8.90;66.90;;;;;;6091542;23;20069;-80
2024/01/27 11:16:43;;;;;;;21.63;9.23;;;8.90;66.90;;;;;;6091788;23;20030;-79
2024/01/27 11:19:12;;;;;;;10.85;7.68;;;8.90;66.90;;;;;;6093430;23;20019;-80
2024/01/27 11:21:38;;;;;;;12.88;8.43;;;8.90;67.00;;;;;;6094665;23;20022;-81
2024/01/27 11:24:18;;;;;;;11.68;8.57;;;8.90;66.90;;;;;;6066535;23;20022;-80
2024/01/27 11:26:44;;;;;;;10.95;7.50;;;8.90;66.90;;;;;;6092728;23;20029;-80
2024/01/27 11:29:19;;;;;;;12.45;8.50;;;8.90;67.00;;;;;;6091774;23;20010;-78
2024/01/27 11:31:46;;;;;;;10.82;8.05;;;8.90;67.10;;;;;;6092636;23;20050;-77
2024/01/27 11:34:21;;;;;;;10.80;7.80;;;8.90;67.00;;;;;;6063807;23;20072;-77
2024/01/27 11:36:47;;;;;;;13.32;8.15;;;8.90;66.90;;;;;;6089591;23;20069;-76
2024/01/27 11:39:30;;;;;;;12.70;8.07;;;8.90;66.90;;;;;;6090311;23;20073;-76
2024/01/27 11:42:06;;;;;;;13.35;8.70;;;8.90;66.90;;;;;;6089914;23;20073;-77
2024/01/27 11:44:39;;;;;;;12.13;8.00;;;8.90;66.90;;;;;;6090375;23;20046;-80
2024/01/27 11:47:06;;;;;;;11.90;7.97;;;8.80;67.10;;;;;;6091102;23;20014;-78
2024/01/27 11:49:33;;;;;;;13.80;7.90;;;8.90;66.90;;;;;;6090401;23;20026;-77
2024/01/27 11:51:59;;;;;;;12.27;8.15;;;8.90;66.90;;;;;;6091460;23;20022;-78
2024/01/27 11:54:25;;;;;;;11.90;8.20;;;8.90;66.90;;;;;;6091855;23;20014;-78
2024/01/27 11:56:51;;;;;;;13.93;8.68;;;8.80;66.70;;;;;;6094090;23;20354;-80
2024/01/27 11:59:18;;;;;;;12.02;8.50;;;8.80;66.60;;;;;;6094930;23;20026;-80
2024/01/27 12:01:44;;;;;;;11.75;8.02;;;8.80;66.90;;;;;;6094757;23;20327;-76
2024/01/27 12:04:10;;;;;;;11.52;7.82;;;8.80;66.80;;;;;;6091357;23;20023;-78
2024/01/27 12:06:38;;;;;;;10.93;7.43;;;8.80;66.90;;;;;;6067476;23;20018;-78
2024/01/27 12:09:11;;;;;;;11.60;8.27;;;8.80;66.90;;;;;;6094274;23;20022;-82
2024/01/27 12:11:41;;;;;;;12.00;8.20;;;8.80;66.80;;;;;;6065430;23;20018;-78
2024/01/27 12:14:07;;;;;;;13.70;8.35;;;8.80;66.90;;;;;;6092120;23;20462;-78
2024/01/27 12:16:34;;;;;;;13.98;8.95;;;8.80;67.00;;;;;;6094871;23;20025;-80
2024/01/27 12:19:00;;;;;;;15.00;7.90;;;8.80;67.20;;;;;;6044401;23;20474;-79
2024/01/27 12:21:26;;;;;;;15.15;9.10;;;8.80;66.90;;;;;;6066668;23;20505;-82
2024/01/27 12:23:57;;;;;;;12.80;8.10;;;8.80;66.70;;;;;;6092235;23;20584;-82
2024/01/27 12:26:26;;;;;;;12.45;8.18;;;8.80;66.60;;;;;;6093225;23;20014;-83
2024/01/27 12:28:52;;;;;;;14.52;8.82;;;8.80;66.40;;;;;;6093036;23;20013;-81
2024/01/27 12:31:18;;;;;;;14.52;9.57;;;8.80;66.40;;;;;;6093117;23;20467;-81
2024/01/27 12:33:52;;;;;;;18.02;10.05;;;8.70;66.40;;;;;;6094735;23;20053;-81
2024/01/27 12:36:22;;;;;;;15.48;10.32;;;8.80;66.40;;;;;;6069049;23;20029;-78
2024/01/27 12:39:05;;;;;;;15.98;11.13;;;8.70;66.30;;;;;;6096454;23;20018;-81
2024/01/27 12:41:33;;;;;;;18.73;12.68;;;8.70;66.60;;;;;;6094604;23;20038;-77
2024/01/27 12:44:06;;;;;;;22.73;14.10;;;8.70;67.00;;;;;;6068362;23;20038;-77
2024/01/27 12:46:32;;;;;;;22.20;15.18;;;8.70;67.20;;;;;;6044520;23;20007;-78
2024/01/27 12:49:18;;;;;;;26.17;17.52;;;8.60;67.50;;;;;;6089158;23;20037;-77
2024/01/27 12:55:13;;;;;;;34.38;21.50;;;8.70;68.00;;;;;;6052521;23;20022;-76
2024/01/27 12:57:47;;;;;;;33.88;22.67;;;8.60;68.20;;;;;;6091405;23;20378;-77
2024/01/27 13:00:15;;;;;;;36.55;23.83;;;8.60;68.40;;;;;;6089557;23;20026;-75
2024/01/27 13:02:43;;;;;;;36.95;23.67;;;8.70;68.40;;;;;;6065216;23;20022;-77